KGVL/GVL METAR and TAF weather

Enter ICAO airport designator
Station Type Date Time Source
KGVL METAR 2020/07/13 14:53 UTC NOAA

KGVL 131453Z AUTO 32005KT 10SM CLR 27/19 A2994 RMK AO2 SLP122 T02720189


Station Type Date Time Source
KGVL Decoded METAR 2020/07/13 14:53 UTC NOAA

GILMER MEMORIAL AIRPORT, GA, United States (KGVL) 34-16N 83-50W 386M
Jul 13, 2020 - 10:53 AM EDT / 2020.07.13 1453 UTC
Wind: from the NW (320 degrees) at 6 MPH (5 KT):0
Visibility: 10 mile(s):0
Sky conditions: clear
Temperature: 81.0 F (27.2 C)
Dew Point: 66.0 F (18.9 C)
Relative Humidity: 60%
Pressure (altimeter): 29.94 in. Hg (1013 hPa)
Pressure tendency: 0.02 inches (0.7 hPa) higher than three hours ago
ob: KGVL 131453Z AUTO 32005KT 10SM CLR 27/19 A2994 RMK AO2 SLP122 T02720189 51007
cycle: 15

Station Type Date Time Source
KGVL TAF UTC NOAA

Error!

Example: see airport list